createdAt,value
2018-10-19T00:00:34.819Z,53.50
2018-10-19T00:03:07.062Z,52.81
2018-10-19T00:05:39.200Z,52.48
2018-10-19T00:08:11.343Z,52.35
2018-10-19T00:10:43.304Z,52.18
2018-10-19T00:13:15.420Z,51.44
2018-10-19T00:15:47.345Z,51.55
2018-10-19T00:18:19.177Z,51.22
2018-10-19T00:20:51.031Z,51.71
2018-10-19T00:23:23.094Z,50.97
2018-10-19T00:25:55.097Z,50.61
2018-10-19T00:28:27.304Z,50.91
2018-10-19T00:30:59.253Z,50.69
2018-10-19T00:33:31.397Z,50.86
2018-10-19T00:36:04.025Z,50.73
2018-10-19T00:38:36.176Z,50.38
2018-10-19T00:41:08.304Z,51.08
2018-10-19T00:43:41.087Z,49.99
2018-10-19T00:46:13.079Z,50.01
2018-10-19T00:48:45.141Z,50.47
2018-10-19T00:51:17.146Z,50.70
2018-10-19T00:53:49.374Z,49.59
2018-10-19T00:56:21.445Z,50.29
2018-10-19T00:58:53.745Z,50.43
2018-10-19T01:01:25.749Z,52.09
2018-10-19T01:03:57.913Z,50.81
2018-10-19T01:06:30.418Z,50.30
2018-10-19T01:09:02.712Z,50.51
2018-10-19T01:11:34.762Z,50.38
2018-10-19T01:14:07.107Z,51.00
2018-10-19T01:16:39.187Z,50.73
2018-10-19T01:19:11.242Z,52.59
2018-10-19T01:21:44.262Z,50.81
2018-10-19T01:24:16.383Z,50.87
2018-10-19T01:26:48.434Z,50.83
2018-10-19T01:29:20.473Z,50.48
2018-10-19T01:31:52.609Z,49.74
2018-10-19T01:34:24.765Z,49.78
2018-10-19T01:36:57.517Z,50.26
2018-10-19T01:39:29.531Z,49.25
2018-10-19T01:42:01.147Z,48.79
2018-10-19T01:44:34.075Z,49.12
2018-10-19T01:47:06.286Z,47.67
2018-10-19T01:49:38.488Z,48.14
2018-10-19T01:52:10.500Z,48.47
2018-10-19T01:54:42.641Z,48.11
2018-10-19T01:57:14.707Z,48.58
2018-10-19T01:59:46.862Z,48.00
2018-10-19T02:02:19.048Z,48.98
2018-10-19T02:04:50.943Z,49.26
2018-10-19T02:07:23.181Z,47.12
2018-10-19T02:09:55.509Z,47.03
2018-10-19T02:12:27.681Z,48.13
2018-10-19T02:14:59.787Z,47.99
2018-10-19T02:17:31.860Z,48.34
2018-10-19T02:20:04.115Z,47.46
2018-10-19T02:22:36.286Z,46.45
2018-10-19T02:25:08.447Z,46.72
2018-10-19T02:27:40.459Z,46.11
2018-10-19T02:30:12.754Z,45.07
2018-10-19T02:32:44.670Z,43.78
2018-10-19T02:35:16.890Z,44.40
2018-10-19T02:37:49.305Z,43.18
2018-10-19T02:40:21.402Z,42.91
2018-10-19T02:42:53.208Z,42.47
2018-10-19T02:45:26.547Z,42.71
2018-10-19T02:47:58.559Z,42.67
2018-10-19T02:50:30.456Z,42.57
2018-10-19T02:53:02.663Z,42.72
2018-10-19T02:55:34.493Z,41.91
2018-10-19T02:58:06.377Z,42.11
2018-10-19T03:00:38.504Z,43.30
2018-10-19T03:03:10.601Z,43.69
2018-10-19T03:05:43.050Z,44.67
2018-10-19T03:08:15.543Z,45.01
2018-10-19T03:10:47.594Z,44.92
2018-10-19T03:13:19.584Z,45.56
2018-10-19T03:15:51.678Z,45.52
2018-10-19T03:18:23.632Z,43.15
2018-10-19T03:20:55.868Z,42.99
2018-10-19T03:23:27.953Z,43.03
2018-10-19T03:26:00.145Z,42.31
2018-10-19T03:28:32.298Z,43.11
2018-10-19T03:31:04.850Z,43.55
2018-10-19T03:33:36.947Z,42.30
2018-10-19T03:36:09.028Z,41.58
2018-10-19T03:38:41.606Z,41.95
2018-10-19T03:41:13.591Z,41.64
2018-10-19T03:43:45.611Z,41.03
2018-10-19T03:46:18.784Z,41.00
2018-10-19T03:48:50.893Z,41.22
2018-10-19T03:51:22.994Z,40.72
2018-10-19T03:53:55.071Z,41.56
2018-10-19T03:56:27.087Z,40.91
2018-10-19T03:58:59.279Z,41.16
2018-10-19T04:01:31.292Z,41.03
2018-10-19T04:04:03.572Z,40.48
2018-10-19T04:06:35.905Z,40.90
2018-10-19T04:09:12.955Z,40.31
2018-10-19T04:11:45.035Z,40.43
2018-10-19T04:14:16.842Z,40.51
2018-10-19T04:16:48.970Z,40.49
2018-10-19T04:19:21.244Z,40.80
2018-10-19T04:21:53.193Z,39.98
2018-10-19T04:24:25.301Z,40.52
2018-10-19T04:26:57.738Z,40.87
2018-10-19T04:29:29.919Z,40.28
2018-10-19T04:32:01.972Z,40.61
2018-10-19T04:34:34.144Z,40.30
2018-10-19T04:37:07.337Z,40.02
2018-10-19T04:39:39.990Z,39.32
2018-10-19T04:42:12.789Z,40.83
2018-10-19T04:44:44.976Z,40.08
2018-10-19T04:47:17.474Z,40.17
2018-10-19T04:49:49.504Z,39.60
2018-10-19T05:06:42.437Z,38.14
2018-10-19T06:54:29.367Z,25.26
2018-10-19T06:57:01.791Z,25.32
2018-10-19T06:59:34.060Z,24.87
2018-10-19T07:02:06.453Z,25.90
2018-10-19T07:04:39.755Z,25.26
2018-10-19T07:07:12.825Z,23.33
2018-10-19T07:09:46.144Z,24.43
2018-10-19T07:12:18.681Z,23.94
2018-10-19T07:14:51.511Z,22.30
2018-10-19T07:17:24.297Z,21.99
2018-10-19T07:19:56.425Z,21.45
2018-10-19T07:22:28.326Z,21.11
2018-10-19T07:25:00.680Z,19.07
2018-10-19T07:27:32.622Z,19.75
2018-10-19T07:30:05.057Z,19.93
2018-10-19T07:32:37.106Z,19.57
2018-10-19T07:35:09.668Z,20.50
2018-10-19T07:41:38.384Z,18.54
2018-10-19T07:44:10.381Z,18.48
2018-10-19T07:46:42.611Z,19.01
2018-10-19T07:49:14.730Z,18.53
2018-10-19T07:51:46.804Z,17.94
2018-10-19T07:54:18.964Z,19.51
2018-10-19T07:56:51.827Z,18.45
2018-10-19T07:59:23.600Z,18.79
2018-10-19T08:01:55.849Z,18.21
2018-10-19T08:04:27.687Z,19.46
2018-10-19T08:06:59.869Z,18.83
2018-10-19T08:09:32.399Z,18.25
2018-10-19T08:12:04.619Z,17.08
2018-10-19T08:14:36.671Z,17.58
2018-10-19T08:17:08.914Z,18.53
2018-10-19T08:19:40.709Z,16.91
2018-10-19T08:22:12.837Z,16.78
2018-10-19T08:24:44.996Z,18.45
2018-10-19T08:27:17.295Z,17.65
2018-10-19T08:29:49.377Z,16.49
2018-10-19T08:32:21.268Z,15.87
2018-10-19T08:34:53.148Z,16.81
2018-10-19T08:37:25.560Z,17.08
2018-10-19T08:39:58.270Z,15.63
2018-10-19T08:42:30.251Z,16.05
2018-10-19T08:45:02.168Z,16.36
2018-10-19T08:47:34.032Z,16.09
2018-10-19T08:50:06.051Z,16.88
2018-10-19T08:52:38.185Z,15.26
2018-10-19T08:55:10.138Z,16.82
2018-10-19T08:57:43.171Z,15.67
2018-10-19T09:00:15.265Z,15.76
2018-10-19T09:02:47.418Z,15.61
2018-10-19T09:05:19.527Z,15.73
2018-10-19T09:07:51.682Z,15.98
2018-10-19T09:10:24.741Z,16.01
2018-10-19T09:12:57.289Z,15.72
2018-10-19T09:15:29.501Z,15.75
2018-10-19T09:18:01.437Z,15.04
2018-10-19T09:20:33.585Z,15.26
2018-10-19T09:23:06.000Z,15.23
2018-10-19T09:25:38.036Z,16.11
2018-10-19T09:28:10.001Z,16.08
2018-10-19T09:30:42.194Z,15.91
2018-10-19T09:33:14.431Z,16.17
2018-10-19T09:35:46.519Z,16.24
2018-10-19T09:38:18.745Z,16.02
2018-10-19T09:40:51.131Z,16.06
2018-10-19T09:43:23.636Z,15.63
2018-10-19T09:45:55.650Z,16.18
2018-10-19T09:48:27.733Z,15.91
2018-10-19T09:50:59.731Z,15.23
2018-10-19T09:53:31.629Z,15.26
2018-10-19T09:56:03.865Z,16.11
2018-10-19T09:58:35.860Z,16.75
2018-10-19T10:01:12.552Z,16.84
2018-10-19T10:03:44.723Z,16.69
2018-10-19T10:06:16.467Z,16.80
2018-10-19T10:08:48.663Z,16.76
2018-10-19T10:11:21.461Z,17.14
2018-10-19T10:13:53.581Z,17.92
2018-10-19T10:16:25.424Z,16.50
2018-10-19T10:18:57.353Z,16.53
2018-10-19T10:21:28.961Z,16.53
2018-10-19T10:24:01.244Z,17.29
2018-10-19T10:26:33.209Z,17.12
2018-10-19T10:29:05.483Z,17.74
2018-10-19T10:31:37.633Z,18.27
2018-10-19T10:34:09.557Z,18.84
2018-10-19T10:36:41.603Z,19.03
2018-10-19T10:39:15.074Z,19.01
2018-10-19T10:41:47.971Z,18.14
2018-10-19T10:44:20.139Z,20.10
2018-10-19T10:46:52.311Z,19.30
2018-10-19T10:49:24.287Z,19.37
2018-10-19T10:51:56.080Z,20.21
2018-10-19T10:54:28.188Z,20.34
2018-10-19T10:57:00.155Z,19.92
2018-10-19T10:59:32.455Z,19.59
2018-10-19T11:02:04.173Z,20.19
2018-10-19T11:04:36.272Z,21.69
2018-10-19T11:07:08.169Z,22.38
2018-10-19T11:09:40.433Z,21.84
2018-10-19T11:12:12.840Z,21.17
2018-10-19T11:14:44.798Z,20.55
2018-10-19T11:17:16.536Z,22.79
2018-10-19T11:19:48.628Z,22.56
2018-10-19T11:22:20.739Z,23.39
2018-10-19T11:24:52.939Z,22.72
2018-10-19T11:27:24.968Z,23.59
2018-10-19T11:29:57.056Z,23.80
2018-10-19T11:32:29.341Z,25.60
2018-10-19T11:35:01.456Z,27.44
2018-10-19T11:37:33.613Z,29.95
2018-10-19T11:40:30.976Z,30.38
2018-10-19T11:43:03.888Z,31.58
2018-10-19T11:45:36.854Z,31.92
2018-10-19T11:48:08.655Z,33.40
2018-10-19T11:50:40.847Z,33.72
2018-10-19T11:53:12.817Z,34.34
2018-10-19T11:55:45.014Z,34.82
2018-10-19T11:58:17.039Z,35.26
2018-10-19T12:00:48.975Z,36.97
2018-10-19T12:03:20.814Z,36.71
2018-10-19T12:05:52.758Z,38.12
2018-10-19T12:08:24.727Z,38.15
2018-10-19T12:10:56.729Z,38.18
2018-10-19T12:13:28.838Z,39.41
2018-10-19T12:16:01.154Z,39.36
2018-10-19T12:18:33.377Z,39.83
2018-10-19T12:21:05.669Z,39.65
2018-10-19T12:23:37.664Z,39.34
2018-10-19T12:26:09.388Z,40.35
2018-10-19T12:28:41.288Z,40.96
2018-10-19T12:31:13.507Z,41.16
2018-10-19T12:33:45.783Z,41.73
2018-10-19T12:36:17.634Z,40.83
2018-10-19T12:38:49.573Z,41.33
2018-10-19T12:41:21.652Z,42.90
2018-10-19T12:43:54.005Z,43.27
2018-10-19T12:46:38.432Z,43.69
2018-10-19T12:49:11.013Z,44.12
2018-10-19T12:51:42.971Z,42.44
2018-10-19T12:54:14.742Z,43.25
2018-10-19T12:56:46.711Z,43.55
2018-10-19T12:59:18.503Z,43.83
2018-10-19T13:01:50.628Z,43.71
2018-10-19T13:04:22.690Z,44.10
2018-10-19T13:06:55.370Z,44.89
2018-10-19T13:09:27.235Z,43.29
2018-10-19T13:11:59.329Z,43.19
2018-10-19T13:14:31.803Z,42.46
2018-10-19T13:17:03.778Z,42.54
2018-10-19T13:19:35.636Z,43.34
2018-10-19T13:22:07.794Z,43.39
2018-10-19T13:24:39.943Z,43.84
2018-10-19T13:27:12.151Z,44.08
2018-10-19T13:29:44.142Z,43.24
2018-10-19T13:32:16.284Z,44.37
2018-10-19T13:34:48.284Z,43.84
2018-10-19T13:37:20.251Z,45.07
2018-10-19T13:39:52.231Z,44.17
2018-10-19T13:42:24.245Z,44.54
2018-10-19T13:44:56.393Z,45.95
2018-10-19T13:47:28.612Z,45.04
2018-10-19T13:50:00.737Z,45.13
2018-10-19T13:52:33.521Z,45.90
2018-10-19T13:55:05.426Z,45.81
2018-10-19T13:57:37.534Z,45.74
2018-10-19T14:00:09.372Z,46.83
2018-10-19T14:02:41.296Z,46.58
2018-10-19T14:05:13.392Z,46.87
2018-10-19T14:07:46.584Z,46.49
2018-10-19T14:10:18.403Z,46.84
2018-10-19T14:12:50.708Z,46.72
2018-10-19T14:15:23.105Z,46.62
2018-10-19T14:17:55.023Z,47.18
2018-10-19T14:20:26.841Z,48.16
2018-10-19T14:22:59.003Z,47.98
2018-10-19T14:25:30.776Z,48.20
2018-10-19T14:28:02.828Z,47.88
2018-10-19T14:30:34.727Z,48.40
2018-10-19T14:33:06.810Z,47.58
2018-10-19T14:35:38.727Z,47.26
2018-10-19T14:38:10.873Z,45.74
2018-10-19T14:40:42.950Z,45.40
2018-10-19T14:43:16.050Z,45.20
2018-10-19T14:45:48.566Z,46.79
2018-10-19T14:48:20.597Z,47.95
2018-10-19T14:50:52.613Z,47.61
2018-10-19T14:53:24.577Z,48.36
2018-10-19T14:55:56.554Z,48.71
2018-10-19T14:58:28.782Z,48.43
2018-10-19T15:01:00.851Z,48.67
2018-10-19T15:03:33.108Z,48.93
2018-10-19T15:06:04.895Z,48.18
2018-10-19T15:08:38.210Z,48.00
2018-10-19T15:11:10.273Z,48.17
2018-10-19T15:13:42.480Z,47.05
2018-10-19T15:16:15.918Z,47.76
2018-10-19T15:18:48.331Z,47.55
2018-10-19T15:21:20.583Z,49.09
2018-10-19T15:23:52.857Z,48.97
2018-10-19T15:26:25.114Z,48.70
2018-10-19T15:28:56.949Z,48.00
2018-10-19T15:31:28.974Z,48.12
2018-10-19T15:34:00.930Z,46.53
2018-10-19T15:36:32.953Z,47.93
2018-10-19T15:39:06.036Z,48.18
2018-10-19T15:41:37.878Z,47.10
2018-10-19T15:44:09.999Z,46.34
2018-10-19T15:46:42.506Z,41.31
2018-10-19T15:49:14.750Z,40.76
2018-10-19T15:51:46.671Z,42.99
2018-10-19T15:54:18.614Z,42.96
2018-10-19T15:56:50.782Z,43.63
2018-10-19T15:59:23.276Z,42.84
2018-10-19T16:01:55.239Z,44.16
2018-10-19T16:04:27.333Z,45.83
2018-10-19T16:06:59.120Z,45.19
2018-10-19T16:09:32.021Z,46.94
2018-10-19T16:12:04.208Z,47.04
2018-10-19T16:14:36.172Z,47.40
2018-10-19T16:17:08.614Z,48.11
2018-10-19T16:19:40.834Z,48.17
2018-10-19T16:22:12.822Z,47.22
2018-10-19T16:24:44.682Z,47.26
2018-10-19T16:27:17.020Z,46.79
2018-10-19T16:29:49.099Z,46.41
2018-10-19T16:32:21.282Z,46.92
2018-10-19T16:34:53.315Z,47.64
2018-10-19T16:37:25.654Z,48.24
2018-10-19T16:39:57.989Z,48.13
2018-10-19T16:42:30.154Z,47.92
2018-10-19T16:45:02.218Z,48.49
2018-10-19T16:47:35.032Z,47.13
2018-10-19T16:50:07.374Z,47.65
2018-10-19T16:54:03.917Z,48.28
2018-10-19T16:56:36.024Z,47.22
2018-10-19T16:59:07.994Z,46.71
2018-10-19T17:01:40.155Z,47.20
2018-10-19T17:04:12.761Z,47.60
2018-10-19T17:06:45.500Z,46.81
2018-10-19T17:09:17.687Z,48.10
2018-10-19T17:11:50.006Z,49.33
2018-10-19T17:14:21.896Z,49.23
2018-10-19T17:16:53.957Z,49.17
2018-10-19T17:19:27.930Z,48.55
2018-10-19T17:22:00.214Z,46.70
2018-10-19T17:24:31.781Z,46.65
2018-10-19T17:27:03.847Z,45.99
2018-10-19T17:29:35.865Z,47.11
2018-10-19T17:32:07.989Z,49.14
2018-10-19T17:34:39.643Z,50.20
2018-10-19T17:39:31.542Z,51.37
2018-10-19T17:42:03.454Z,50.67
2018-10-19T17:44:35.459Z,51.21
2018-10-19T17:47:07.712Z,51.66
2018-10-19T17:49:40.349Z,51.51
2018-10-19T17:52:12.021Z,51.49
2018-10-19T17:54:43.916Z,52.13
2018-10-19T17:57:16.065Z,52.47
2018-10-19T17:59:48.025Z,53.40
2018-10-19T18:02:19.890Z,52.18
2018-10-19T18:04:51.831Z,51.08
2018-10-19T18:07:23.882Z,51.07
2018-10-19T18:09:55.961Z,52.14
2018-10-19T18:12:28.127Z,53.95
2018-10-19T18:15:00.254Z,50.18
2018-10-19T18:17:32.014Z,52.65
2018-10-19T18:20:04.602Z,52.39
2018-10-19T18:22:36.813Z,53.44
2018-10-19T18:25:09.153Z,53.79
2018-10-19T18:27:41.022Z,54.15
2018-10-19T18:30:14.054Z,53.48
2018-10-19T18:32:46.462Z,54.15
2018-10-19T18:35:18.448Z,54.42
2018-10-19T18:37:50.473Z,54.57
2018-10-19T18:40:22.254Z,54.94
2018-10-19T18:42:54.105Z,55.38
2018-10-19T18:45:26.079Z,56.03
2018-10-19T18:47:58.143Z,55.87
2018-10-19T18:50:30.711Z,54.70
2018-10-19T18:53:02.801Z,52.56
2018-10-19T18:55:35.148Z,53.33
2018-10-19T18:58:07.003Z,52.95
2018-10-19T19:00:38.874Z,55.33
2018-10-19T19:03:11.207Z,54.55
2018-10-19T19:05:43.458Z,55.14
2018-10-19T19:08:15.637Z,54.37
2018-10-19T19:10:47.694Z,54.30
2018-10-19T19:13:24.326Z,54.41
2018-10-19T19:15:56.532Z,54.75
2018-10-19T19:18:28.193Z,53.82
2018-10-19T19:21:00.965Z,54.08
2018-10-19T19:23:37.280Z,54.85
2018-10-19T19:26:14.670Z,54.62
2018-10-19T19:28:46.811Z,54.15
2018-10-19T19:31:18.901Z,54.69
2018-10-19T19:33:55.422Z,54.34
2018-10-19T19:36:27.140Z,54.08
2018-10-19T19:38:59.096Z,54.71
2018-10-19T19:41:36.001Z,54.70
2018-10-19T19:44:07.869Z,55.17
2018-10-19T19:46:39.726Z,55.75
2018-10-19T19:49:16.332Z,55.26
2018-10-19T19:51:49.088Z,55.57
2018-10-19T19:54:21.129Z,55.95
2018-10-19T19:56:53.144Z,55.12
2018-10-19T19:59:25.060Z,53.30
2018-10-19T20:01:57.305Z,55.13
2018-10-19T20:04:29.651Z,57.09
2018-10-19T20:07:01.947Z,56.40
2018-10-19T20:09:34.776Z,56.53
2018-10-19T20:12:07.264Z,57.21
2018-10-19T20:14:39.501Z,56.91
2018-10-19T20:17:11.814Z,56.80
2018-10-19T20:19:43.839Z,57.43
2018-10-19T20:22:16.332Z,57.76
2018-10-19T20:24:48.342Z,57.46
2018-10-19T20:27:20.384Z,58.37
2018-10-19T20:29:52.493Z,57.95
2018-10-19T20:32:24.473Z,58.03
2018-10-19T20:34:56.705Z,58.30
2018-10-19T20:37:28.957Z,58.31
2018-10-19T20:40:01.063Z,59.71
2018-10-19T20:42:33.051Z,57.23
2018-10-19T20:45:05.369Z,55.51
2018-10-19T20:47:37.457Z,54.04
2018-10-19T20:50:09.793Z,55.20
2018-10-19T20:52:42.539Z,55.47
2018-10-19T20:55:15.635Z,55.30
2018-10-19T20:57:47.692Z,57.39
2018-10-19T21:00:19.758Z,57.98
2018-10-19T21:02:51.664Z,57.87
2018-10-19T21:05:23.432Z,57.49
2018-10-19T21:07:55.615Z,56.90
2018-10-19T21:10:28.061Z,57.03
2018-10-19T21:13:00.265Z,57.01
2018-10-19T21:15:32.236Z,56.42
2018-10-19T21:18:04.376Z,56.07
2018-10-19T21:20:36.396Z,56.31
2018-10-19T21:23:08.748Z,55.92
2018-10-19T21:25:40.752Z,56.63
2018-10-19T21:28:13.088Z,56.37
2018-10-19T21:30:45.166Z,56.56
2018-10-19T21:33:17.402Z,56.57
2018-10-19T21:35:49.120Z,57.31
2018-10-19T21:38:21.115Z,57.48
2018-10-19T21:40:52.967Z,57.38
2018-10-19T21:43:25.109Z,56.95
2018-10-19T21:45:56.906Z,57.34
2018-10-19T21:48:28.981Z,57.92
2018-10-19T21:51:00.982Z,58.00
2018-10-19T21:53:33.460Z,58.78
2018-10-19T21:56:05.485Z,58.61
2018-10-19T21:58:37.773Z,58.78
2018-10-19T22:01:09.843Z,59.20
2018-10-19T22:03:41.978Z,59.21
2018-10-19T22:06:13.966Z,60.96
2018-10-19T22:08:45.913Z,59.80
2018-10-19T22:11:18.353Z,59.88
2018-10-19T22:13:50.558Z,60.03
2018-10-19T22:16:22.853Z,59.73
2018-10-19T22:18:54.999Z,60.51
2018-10-19T22:21:27.305Z,60.78
2018-10-19T22:24:00.038Z,60.49
2018-10-19T22:26:32.219Z,61.02
2018-10-19T22:29:04.340Z,61.35
2018-10-19T22:31:36.507Z,60.81
2018-10-19T22:34:08.442Z,61.91
2018-10-19T22:36:40.421Z,63.11
2018-10-19T22:39:12.712Z,63.90
2018-10-19T22:41:44.762Z,63.19
2018-10-19T22:44:18.095Z,63.35
2018-10-19T22:46:50.196Z,62.53
2018-10-19T22:49:22.138Z,62.70
2018-10-19T22:51:54.254Z,64.65
2018-10-19T22:54:26.764Z,63.83
2018-10-19T22:56:58.805Z,66.14
2018-10-19T22:59:30.679Z,65.07
2018-10-19T23:02:02.552Z,65.93
2018-10-19T23:04:34.704Z,64.82
2018-10-19T23:07:07.173Z,65.27
2018-10-19T23:09:39.468Z,65.08
2018-10-19T23:12:11.741Z,66.31
2018-10-19T23:14:44.386Z,65.66
2018-10-19T23:17:16.614Z,66.42
2018-10-19T23:19:48.723Z,66.78
2018-10-19T23:22:20.802Z,66.77
2018-10-19T23:24:53.322Z,67.00
2018-10-19T23:27:25.286Z,67.74
2018-10-19T23:29:57.451Z,67.72
2018-10-19T23:32:29.152Z,68.21
2018-10-19T23:35:01.514Z,67.97
2018-10-19T23:37:33.637Z,66.57
2018-10-19T23:40:05.985Z,66.14
2018-10-19T23:42:38.104Z,65.69
2018-10-19T23:45:10.591Z,66.62
2018-10-19T23:47:42.578Z,65.98
2018-10-19T23:52:45.203Z,66.41
2018-10-19T23:55:17.678Z,66.74
2018-10-19T23:57:49.707Z,67.09
